• Join FlightAware (Why Join?)
  • Login
  • US Flag 
02:59PM EDT


 

Airport Tracker/Info


-or-


 

Live Flight TrackerFlight Track Log ✈ CES5647 ✈ 05-May-2014 ✈ ZSSS / SHA - ZSWY / WUS

Flight Track Log - Related Links

Times and Time Zones

All times are in EDT time to prevent confusion due to time zone crossing. See the CES5647 flight status page for this flight to view local times or setup timezone preferences in your user account.

Time Position Orientation Groundspeed Altitude Reporting Facility
EDT Latitude Longitude Course Direction KTS MPH feet Rate Location/Type
07:21AM 31.1917 121.3327 177° South 138 159 400  Level FlightAware ADS-B (ZSSS / SHA)
07:21AM 31.1812 121.3330 178° South 140 161 1,100 2,460 Climbing FlightAware ADS-B (ZSSS / SHA)
07:21AM 31.1720 121.3331 179° South 141 162 1,600 2,280 Climbing FlightAware ADS-B (ZSSS / SHA)
07:22AM 31.1626 121.3334 177° South 141 162 2,300 2,580 Climbing FlightAware ADS-B (ZSSS / SHA)
07:22AM 31.1527 121.3339 177° South 142 163 2,900 1,860 Climbing FlightAware ADS-B (ZSSS / SHA)
07:22AM 31.1420 121.3347 176° South 160 184 3,200 1,200 Climbing FlightAware ADS-B (ZSSS / SHA)
07:22AM 31.1306 121.3354 177° South 182 209 3,500 1,200 Climbing FlightAware ADS-B (ZSSS / SHA)
07:22AM 31.1199 121.3360 177° South 200 230 3,800 1,380 Climbing FlightAware ADS-B (ZSSS / SHA)
07:23AM 31.1014 121.3372 176° South 234 269 4,200 1,320 Climbing FlightAware ADS-B (ZSSS / SHA)
07:23AM 31.0817 121.3383 179° South 259 298 4,600 780 Climbing FlightAware ADS-B (ZSSS / SHA)
07:23AM 31.0660 121.3350 200° South 273 314 4,600 300 Level FlightAware ADS-B (ZSSS / SHA)
07:23AM 31.0549 121.3270 222° Southwest 272 313 4,700 240 Climbing FlightAware ADS-B (ZSSS / SHA)
07:24AM 31.0459 121.3127 222° Southwest 272 313 4,700  Level FlightAware ADS-B (ZSSS / SHA)
07:24AM 31.0433 121.2860 268° West 265 305 4,700  Level FlightAware ADS-B (ZSSS / SHA)
07:24AM 31.0453 121.2732 281° West 262 302 4,700 120 Level FlightAware ADS-B (ZSSS / SHA)
07:25AM 31.0516 121.2336 281° West 264 304 4,800 900 Climbing FlightAware ADS-B (ZSSS / SHA)
07:25AM 31.0552 121.2104 280° West 269 310 5,400 2,400 Climbing FlightAware ADS-B (ZSSS / SHA)
07:27AM 30.9723 121.1275 221° Southwest  Level Estimated
07:28AM 30.9230 121.0783 221° Southwest  Level Estimated
07:29AM 30.8738 121.0292 221° Southwest  Level Estimated
07:30AM 30.8245 120.9801 221° Southwest  Level Estimated
07:31AM 30.7751 120.9311 221° Southwest  Level Estimated
07:32AM 30.7258 120.8821 220° Southwest  Level Estimated
07:33AM 30.6764 120.8332 220° Southwest  Level Estimated
07:34AM 30.6271 120.7843 220° Southwest  Level Estimated
07:35AM 30.5777 120.7355 220° Southwest  Level Estimated
07:36AM 30.5283 120.6867 220° Southwest  Level Estimated
07:37AM 30.4630 120.6224 220° Southwest  Level Estimated
07:38AM 30.3977 120.5581 220° Southwest  Level Estimated
07:39AM 30.3323 120.4939 220° Southwest  Level Estimated
07:40AM 30.2669 120.4298 220° Southwest  Level Estimated
07:41AM 30.2015 120.3659 220° Southwest  Level Estimated
07:42AM 30.1361 120.3019 220° Southwest  Level Estimated
07:43AM 30.0706 120.2381 220° Southwest  Level Estimated
07:44AM 30.0051 120.1743 220° Southwest  Level Estimated
07:45AM 29.9396 120.1107 220° Southwest  Level Estimated
07:46AM 29.8740 120.0471 220° Southwest  Level Estimated
07:47AM 29.8084 119.9836 220° Southwest  Level Estimated
07:48AM 29.7428 119.9202 220° Southwest  Level Estimated
07:49AM 29.6771 119.8568 220° Southwest  Level Estimated
07:50AM 29.6114 119.7936 220° Southwest  Level Estimated
07:51AM 29.5457 119.7304 220° Southwest  Level Estimated
07:52AM 29.4799 119.6673 220° Southwest  Level Estimated
07:53AM 29.4142 119.6043 220° Southwest  Level Estimated
07:54AM 29.3484 119.5414 220° Southwest  Level Estimated
07:55AM 29.2825 119.4786 220° Southwest  Level Estimated
07:56AM 29.2167 119.4158 220° Southwest  Level Estimated
07:57AM 29.1508 119.3531 220° Southwest  Level Estimated
07:58AM 29.0848 119.2905 220° Southwest  Level Estimated
07:59AM 29.0189 119.2280 220° Southwest  Level Estimated
08:00AM 28.9529 119.1656 220° Southwest  Level Estimated
08:01AM 28.8869 119.1032 220° Southwest  Level Estimated
08:02AM 28.8209 119.0409 220° Southwest  Level Estimated
08:03AM 28.7548 118.9787 220° Southwest  Level Estimated
08:04AM 28.6887 118.9166 220° Southwest  Level Estimated
08:05AM 28.6226 118.8546 219° Southwest  Level Estimated
08:06AM 28.5564 118.7926 219° Southwest  Level Estimated
08:07AM 28.4902 118.7307 219° Southwest  Level Estimated
08:08AM 28.4240 118.6689 219° Southwest  Level Estimated
08:09AM 28.3578 118.6072 219° Southwest  Level Estimated
08:10AM 28.2915 118.5455 219° Southwest  Level Estimated
08:11AM 28.2252 118.4839 219° Southwest  Level Estimated
08:12AM 28.1589 118.4224 219° Southwest  Level Estimated
08:13AM 28.0926 118.3610 219° Southwest  Level Estimated
08:14AM 28.0262 118.2997 219° Southwest  Level Estimated
08:15AM 27.9598 118.2384 219° Southwest  Level Estimated
08:16AM 27.8934 118.1772 219° Southwest  Level Estimated
08:17AM 27.8269 118.1161 219° Southwest  Level Estimated
08:18AM 27.7604 118.0550 219° Southwest  Level Estimated
08:19AM 27.7019 118.0014 219° Southwest  Level Estimated
08:20AM 27.7019 118.0014 North  Level Estimated
08:21AM 27.7019 118.0014 North  Level Estimated
08:22AM 27.7019 118.0014 North  Level Estimated
08:23AM 27.7019 118.0014 North  Level Estimated
08:24AM 27.7019 118.0014 North  Level Estimated
08:25AM 27.7019 118.0014 North  Level Estimated
08:26AM 27.7019 118.0014 North  Level Estimated
08:27AM 27.7019 118.0014 North  Level Estimated
08:28AM 27.7019 118.0014 North  Level Estimated
08:29AM 27.7019 118.0014 North  Level Estimated
08:30AM 27.7019 118.0014 North  Level Estimated
08:31AM 27.7019 118.0014 North  Level Estimated
08:32AM 27.7019 118.0014 North  Level Estimated
08:33AM 27.7019 118.0014 North  Level Estimated